ADDS METAR Data INFO
IDs: Format: Raw Decoded Include TAF

Data at: 1405 UTC 23 Jan 2018

METAR for:KW22 (Buckhannon/Upshur Cn, WV, US)
Text:KW22 231355Z AUTO 28009G15KT 10SM FEW030 SCT037 OVC048 07/02 A2972 RMK AO2
Temperature: 7.0°C ( 45°F)
Dewpoint: 2.0°C ( 36°F) [RH = 70%]
Pressure (altimeter):29.72 inches Hg (1006.5 mb)
Winds:from the W (280 degrees) at 10 MPH (9 knots; 4.6 m/s) gusting to 17 MPH (15 knots; 7.7 m/s)
Visibility:10 or more sm (16+ km)
Ceiling:4800 feet AGL
Clouds: few clouds at 3000 feet AGL, scattered clouds at 3700 feet AGL, overcast cloud deck at 4800 feet AGL
QC Flag:automated observation with no human augmentation
Text:KW22 231335Z AUTO 30009G20KT 270V340 9SM FEW017 SCT024 BKN032 07/03 A2971 RMK AO2
Temperature: 7.0°C ( 45°F)
Dewpoint: 3.0°C ( 37°F) [RH = 76%]
Pressure (altimeter):29.71 inches Hg (1006.2 mb)
Winds:from the WNW (300 degrees) at 10 MPH (9 knots; 4.6 m/s) gusting to 23 MPH (20 knots; 10.3 m/s)
Visibility: 9 sm ( 14 km)
Ceiling:3200 feet AGL
Clouds: few clouds at 1700 feet AGL, scattered clouds at 2400 feet AGL, broken clouds at 3200 feet AGL
QC Flag:automated observation with no human augmentation
Text:KW22 231315Z AUTO 29013KT 10SM FEW013 SCT017 BKN023 08/06 A2970 RMK AO2
Temperature: 8.0°C ( 46°F)
Dewpoint: 6.0°C ( 43°F) [RH = 87%]
Pressure (altimeter):29.70 inches Hg (1005.8 mb)
Winds:from the WNW (290 degrees) at 15 MPH (13 knots; 6.7 m/s)
Visibility:10 or more sm (16+ km)
Ceiling:2300 feet AGL
Clouds: few clouds at 1300 feet AGL, scattered clouds at 1700 feet AGL, broken clouds at 2300 feet AGL
QC Flag:automated observation with no human augmentation
Text:KW22 231255Z AUTO 27008G13KT 10SM FEW022 FEW027 OVC034 08/08 A2969 RMK AO2
Temperature: 8.0°C ( 46°F)
Dewpoint: 8.0°C ( 46°F) [RH = 100%]
Pressure (altimeter):29.69 inches Hg (1005.5 mb)
Winds:from the W (270 degrees) at 9 MPH (8 knots; 4.1 m/s) gusting to 15 MPH (13 knots; 6.7 m/s)
Visibility:10 or more sm (16+ km)
Ceiling:3400 feet AGL
Clouds: few clouds at 2200 feet AGL, few clouds at 2700 feet AGL, overcast cloud deck at 3400 feet AGL
QC Flag:automated observation with no human augmentation
Text:KW22 231235Z AUTO 27007KT 10SM 08/08 A2969 RMK AO2
Temperature: 8.0°C ( 46°F)
Dewpoint: 8.0°C ( 46°F) [RH = 100%]
Pressure (altimeter):29.69 inches Hg (1005.5 mb)
Winds:from the W (270 degrees) at 8 MPH (7 knots; 3.6 m/s)
Visibility:10 or more sm (16+ km)
QC Flag:automated observation with no human augmentation
Text:KW22 231215Z AUTO 27007G13KT 10SM SCT012 OVC019 09/09 A2968 RMK AO2
Temperature: 9.0°C ( 48°F)
Dewpoint: 9.0°C ( 48°F) [RH = 100%]
Pressure (altimeter):29.68 inches Hg (1005.2 mb)
Winds:from the W (270 degrees) at 8 MPH (7 knots; 3.6 m/s) gusting to 15 MPH (13 knots; 6.7 m/s)
Visibility:10 or more sm (16+ km)
Ceiling:1900 feet AGL
Clouds: scattered clouds at 1200 feet AGL, overcast cloud deck at 1900 feet AGL
QC Flag:automated observation with no human augmentation
Text:KW22 231150Z AUTO 26010KT 230V290 8SM -RA BKN008 BKN014 OVC020 09/09 A2968 RMK AO2
Temperature: 9.0°C ( 48°F)
Dewpoint: 9.0°C ( 48°F) [RH = 100%]
Pressure (altimeter):29.68 inches Hg (1005.2 mb)
Winds:from the W (260 degrees) at 12 MPH (10 knots; 5.1 m/s)
Visibility: 8 sm ( 13 km)
Ceiling:800 feet AGL
Clouds: broken clouds at 800 feet AGL, broken clouds at 1400 feet AGL, overcast cloud deck at 2000 feet AGL
Weather:-RA (light rain)
QC Flag:automated observation with no human augmentation
Text:KW22 231135Z AUTO 21007KT 10SM BKN009 OVC014 09/09 A2968 RMK AO2
Temperature: 9.0°C ( 48°F)
Dewpoint: 9.0°C ( 48°F) [RH = 100%]
Pressure (altimeter):29.68 inches Hg (1005.2 mb)
Winds:from the SSW (210 degrees) at 8 MPH (7 knots; 3.6 m/s)
Visibility:10 or more sm (16+ km)
Ceiling:900 feet AGL
Clouds: broken clouds at 900 feet AGL, overcast cloud deck at 1400 feet AGL
QC Flag:automated observation with no human augmentation
Text:KW22 231115Z AUTO 23008G14KT 7SM -DZ BKN012 BKN019 OVC028 09/09 A2967 RMK AO2
Temperature: 9.0°C ( 48°F)
Dewpoint: 9.0°C ( 48°F) [RH = 100%]
Pressure (altimeter):29.67 inches Hg (1004.8 mb)
Winds:from the SW (230 degrees) at 9 MPH (8 knots; 4.1 m/s) gusting to 16 MPH (14 knots; 7.2 m/s)
Visibility: 7 sm ( 11 km)
Ceiling:1200 feet AGL
Clouds: broken clouds at 1200 feet AGL, broken clouds at 1900 feet AGL, overcast cloud deck at 2800 feet AGL
Weather:-DZ (light drizzle)
QC Flag:automated observation with no human augmentation
Text:KW22 231055Z AUTO 24010KT 3SM -RA SCT010 BKN015 OVC037 09/09 A2967 RMK AO2
Temperature: 9.0°C ( 48°F)
Dewpoint: 9.0°C ( 48°F) [RH = 100%]
Pressure (altimeter):29.67 inches Hg (1004.8 mb)
Winds:from the WSW (240 degrees) at 12 MPH (10 knots; 5.1 m/s)
Visibility: 3 sm ( 5 km)
Ceiling:1500 feet AGL
Clouds: scattered clouds at 1000 feet AGL, broken clouds at 1500 feet AGL, overcast cloud deck at 3700 feet AGL
Weather:-RA (light rain)
QC Flag:automated observation with no human augmentation
Text:KW22 231035Z AUTO 23006KT 6SM -RA FEW015 BKN039 OVC046 09/09 A2965 RMK AO2
Temperature: 9.0°C ( 48°F)
Dewpoint: 9.0°C ( 48°F) [RH = 100%]
Pressure (altimeter):29.65 inches Hg (1004.1 mb)
Winds:from the SW (230 degrees) at 7 MPH (6 knots; 3.1 m/s)
Visibility: 6 sm ( 10 km)
Ceiling:3900 feet AGL
Clouds: few clouds at 1500 feet AGL, broken clouds at 3900 feet AGL, overcast cloud deck at 4600 feet AGL
Weather:-RA (light rain)
QC Flag:automated observation with no human augmentation
Text:KW22 231015Z AUTO 25010G16KT 6SM BR FEW011 BKN017 OVC048 09/09 A2964 RMK AO2
Temperature: 9.0°C ( 48°F)
Dewpoint: 9.0°C ( 48°F) [RH = 100%]
Pressure (altimeter):29.64 inches Hg (1003.8 mb)
Winds:from the WSW (250 degrees) at 12 MPH (10 knots; 5.1 m/s) gusting to 18 MPH (16 knots; 8.2 m/s)
Visibility: 6 sm ( 10 km)
Ceiling:1700 feet AGL
Clouds: few clouds at 1100 feet AGL, broken clouds at 1700 feet AGL, overcast cloud deck at 4800 feet AGL
Weather:BR (mist)
QC Flag:automated observation with no human augmentation
Text:KW22 230955Z AUTO 28012KT 5SM -RA SCT014 BKN028 OVC034 10/09 A2964 RMK AO2
Temperature: 10.0°C ( 50°F)
Dewpoint: 9.0°C ( 48°F) [RH = 93%]
Pressure (altimeter):29.64 inches Hg (1003.8 mb)
Winds:from the W (280 degrees) at 14 MPH (12 knots; 6.2 m/s)
Visibility: 5 sm ( 8 km)
Ceiling:2800 feet AGL
Clouds: scattered clouds at 1400 feet AGL, broken clouds at 2800 feet AGL, overcast cloud deck at 3400 feet AGL
Weather:-RA (light rain)
QC Flag:automated observation with no human augmentation
Text:KW22 230935Z AUTO 30007G14KT 260V330 10SM FEW020 SCT031 BKN036 10/09 A2963 RMK AO2
Temperature: 10.0°C ( 50°F)
Dewpoint: 9.0°C ( 48°F) [RH = 93%]
Pressure (altimeter):29.63 inches Hg (1003.5 mb)
Winds:from the WNW (300 degrees) at 8 MPH (7 knots; 3.6 m/s) gusting to 16 MPH (14 knots; 7.2 m/s)
Visibility:10 or more sm (16+ km)
Ceiling:3600 feet AGL
Clouds: few clouds at 2000 feet AGL, scattered clouds at 3100 feet AGL, broken clouds at 3600 feet AGL
QC Flag:automated observation with no human augmentation
Text:KW22 230915Z AUTO 31010G20KT 280V340 10SM FEW023 BKN034 OVC041 11/09 A2963 RMK AO2
Temperature: 11.0°C ( 52°F)
Dewpoint: 9.0°C ( 48°F) [RH = 87%]
Pressure (altimeter):29.63 inches Hg (1003.5 mb)
Winds:from the NW (310 degrees) at 12 MPH (10 knots; 5.1 m/s) gusting to 23 MPH (20 knots; 10.3 m/s)
Visibility:10 or more sm (16+ km)
Ceiling:3400 feet AGL
Clouds: few clouds at 2300 feet AGL, broken clouds at 3400 feet AGL, overcast cloud deck at 4100 feet AGL
QC Flag:automated observation with no human augmentation
Text:KW22 230855Z AUTO 31010KT 10SM BKN040 BKN050 OVC090 14/08 A2962 RMK AO2
Temperature: 14.0°C ( 57°F)
Dewpoint: 8.0°C ( 46°F) [RH = 67%]
Pressure (altimeter):29.62 inches Hg (1003.1 mb)
Winds:from the NW (310 degrees) at 12 MPH (10 knots; 5.1 m/s)
Visibility:10 or more sm (16+ km)
Ceiling:4000 feet AGL
Clouds: broken clouds at 4000 feet AGL, broken clouds at 5000 feet AGL, overcast cloud deck at 9000 feet AGL
QC Flag:automated observation with no human augmentation
Text:KW22 230835Z AUTO 20015G21KT 10SM SCT047 BKN090 OVC110 15/08 A2962 RMK AO2
Temperature: 15.0°C ( 59°F)
Dewpoint: 8.0°C ( 46°F) [RH = 63%]
Pressure (altimeter):29.62 inches Hg (1003.1 mb)
Winds:from the SSW (200 degrees) at 17 MPH (15 knots; 7.7 m/s) gusting to 24 MPH (21 knots; 10.8 m/s)
Visibility:10 or more sm (16+ km)
Ceiling:9000 feet AGL
Clouds: scattered clouds at 4700 feet AGL, broken clouds at 9000 feet AGL, overcast cloud deck at 11000 feet AGL
QC Flag:automated observation with no human augmentation
Text:KW22 230815Z AUTO 20011KT 10SM BKN045 BKN050 OVC065 15/08 A2963 RMK AO2
Temperature: 15.0°C ( 59°F)
Dewpoint: 8.0°C ( 46°F) [RH = 63%]
Pressure (altimeter):29.63 inches Hg (1003.5 mb)
Winds:from the SSW (200 degrees) at 13 MPH (11 knots; 5.7 m/s)
Visibility:10 or more sm (16+ km)
Ceiling:4500 feet AGL
Clouds: broken clouds at 4500 feet AGL, broken clouds at 5000 feet AGL, overcast cloud deck at 6500 feet AGL
QC Flag:automated observation with no human augmentation
Text:KW22 230755Z AUTO 20009G14KT 10SM SCT047 SCT065 OVC110 15/08 A2964 RMK AO2
Temperature: 15.0°C ( 59°F)
Dewpoint: 8.0°C ( 46°F) [RH = 63%]
Pressure (altimeter):29.64 inches Hg (1003.8 mb)
Winds:from the SSW (200 degrees) at 10 MPH (9 knots; 4.6 m/s) gusting to 16 MPH (14 knots; 7.2 m/s)
Visibility:10 or more sm (16+ km)
Ceiling:11000 feet AGL
Clouds: scattered clouds at 4700 feet AGL, scattered clouds at 6500 feet AGL, overcast cloud deck at 11000 feet AGL
QC Flag:automated observation with no human augmentation
Text:KW22 230735Z AUTO 20014KT 10SM FEW049 SCT070 BKN120 15/08 A2964 RMK AO2
Temperature: 15.0°C ( 59°F)
Dewpoint: 8.0°C ( 46°F) [RH = 63%]
Pressure (altimeter):29.64 inches Hg (1003.8 mb)
Winds:from the SSW (200 degrees) at 16 MPH (14 knots; 7.2 m/s)
Visibility:10 or more sm (16+ km)
Ceiling:12000 feet AGL
Clouds: few clouds at 4900 feet AGL, scattered clouds at 7000 feet AGL, broken clouds at 12000 feet AGL
QC Flag:automated observation with no human augmentation
Text:KW22 230715Z AUTO 20017G31KT 10SM FEW043 SCT070 BKN095 15/08 A2965 RMK AO2
Temperature: 15.0°C ( 59°F)
Dewpoint: 8.0°C ( 46°F) [RH = 63%]
Pressure (altimeter):29.65 inches Hg (1004.1 mb)
Winds:from the SSW (200 degrees) at 20 MPH (17 knots; 8.7 m/s) gusting to 36 MPH (31 knots; 15.9 m/s)
Visibility:10 or more sm (16+ km)
Ceiling:9500 feet AGL
Clouds: few clouds at 4300 feet AGL, scattered clouds at 7000 feet AGL, broken clouds at 9500 feet AGL
QC Flag:automated observation with no human augmentation
Text:KW22 230655Z AUTO 20019G25KT 10SM SCT110 15/08 A2965 RMK AO2
Temperature: 15.0°C ( 59°F)
Dewpoint: 8.0°C ( 46°F) [RH = 63%]
Pressure (altimeter):29.65 inches Hg (1004.1 mb)
Winds:from the SSW (200 degrees) at 22 MPH (19 knots; 9.8 m/s) gusting to 29 MPH (25 knots; 12.9 m/s)
Visibility:10 or more sm (16+ km)
Ceiling:at least 12,000 feet AGL
Clouds: scattered clouds at 11000 feet AGL
QC Flag:automated observation with no human augmentation
Text:KW22 230635Z AUTO 19022G28KT 10SM CLR 15/08 A2964 RMK AO2
Temperature: 15.0°C ( 59°F)
Dewpoint: 8.0°C ( 46°F) [RH = 63%]
Pressure (altimeter):29.64 inches Hg (1003.8 mb)
Winds:from the S (190 degrees) at 25 MPH (22 knots; 11.3 m/s) gusting to 32 MPH (28 knots; 14.4 m/s)
Visibility:10 or more sm (16+ km)
Ceiling:at least 12,000 feet AGL
Clouds:sky clear below 12,000 feet AGL
QC Flag:automated observation with no human augmentation
Text:KW22 230615Z AUTO 19015G28KT 10SM FEW120 15/08 A2964 RMK AO2
Temperature: 15.0°C ( 59°F)
Dewpoint: 8.0°C ( 46°F) [RH = 63%]
Pressure (altimeter):29.64 inches Hg (1003.8 mb)
Winds:from the S (190 degrees) at 17 MPH (15 knots; 7.7 m/s) gusting to 32 MPH (28 knots; 14.4 m/s)
Visibility:10 or more sm (16+ km)
Ceiling:at least 12,000 feet AGL
Clouds: few clouds at 12000 feet AGL
QC Flag:automated observation with no human augmentation
Text:KW22 230555Z AUTO 19015G23KT 10SM SCT120 15/07 A2966 RMK AO2
Temperature: 15.0°C ( 59°F)
Dewpoint: 7.0°C ( 45°F) [RH = 59%]
Pressure (altimeter):29.66 inches Hg (1004.5 mb)
Winds:from the S (190 degrees) at 17 MPH (15 knots; 7.7 m/s) gusting to 26 MPH (23 knots; 11.8 m/s)
Visibility:10 or more sm (16+ km)
Ceiling:at least 12,000 feet AGL
Clouds: scattered clouds at 12000 feet AGL
QC Flag:automated observation with no human augmentation
Text:KW22 230535Z AUTO 19017G22KT 10SM CLR 15/08 A2967 RMK AO2
Temperature: 15.0°C ( 59°F)
Dewpoint: 8.0°C ( 46°F) [RH = 63%]
Pressure (altimeter):29.67 inches Hg (1004.8 mb)
Winds:from the S (190 degrees) at 20 MPH (17 knots; 8.7 m/s) gusting to 25 MPH (22 knots; 11.3 m/s)
Visibility:10 or more sm (16+ km)
Ceiling:at least 12,000 feet AGL
Clouds:sky clear below 12,000 feet AGL
QC Flag:automated observation with no human augmentation
Text:KW22 230515Z AUTO 19012G25KT 10SM CLR 15/08 A2969 RMK AO2
Temperature: 15.0°C ( 59°F)
Dewpoint: 8.0°C ( 46°F) [RH = 63%]
Pressure (altimeter):29.69 inches Hg (1005.5 mb)
Winds:from the S (190 degrees) at 14 MPH (12 knots; 6.2 m/s) gusting to 29 MPH (25 knots; 12.9 m/s)
Visibility:10 or more sm (16+ km)
Ceiling:at least 12,000 feet AGL
Clouds:sky clear below 12,000 feet AGL
QC Flag:automated observation with no human augmentation
Text:KW22 230455Z AUTO 19016G23KT 10SM CLR 15/07 A2970 RMK AO2
Temperature: 15.0°C ( 59°F)
Dewpoint: 7.0°C ( 45°F) [RH = 59%]
Pressure (altimeter):29.70 inches Hg (1005.8 mb)
Winds:from the S (190 degrees) at 18 MPH (16 knots; 8.2 m/s) gusting to 26 MPH (23 knots; 11.8 m/s)
Visibility:10 or more sm (16+ km)
Ceiling:at least 12,000 feet AGL
Clouds:sky clear below 12,000 feet AGL
QC Flag:automated observation with no human augmentation
Text:KW22 230435Z AUTO 19013G20KT 10SM FEW037 FEW046 15/07 A2971 RMK AO2
Temperature: 15.0°C ( 59°F)
Dewpoint: 7.0°C ( 45°F) [RH = 59%]
Pressure (altimeter):29.71 inches Hg (1006.2 mb)
Winds:from the S (190 degrees) at 15 MPH (13 knots; 6.7 m/s) gusting to 23 MPH (20 knots; 10.3 m/s)
Visibility:10 or more sm (16+ km)
Ceiling:at least 12,000 feet AGL
Clouds: few clouds at 3700 feet AGL, few clouds at 4600 feet AGL
QC Flag:automated observation with no human augmentation
Text:KW22 230415Z AUTO 20010KT 10SM CLR 14/07 A2973 RMK AO2
Temperature: 14.0°C ( 57°F)
Dewpoint: 7.0°C ( 45°F) [RH = 63%]
Pressure (altimeter):29.73 inches Hg (1006.9 mb)
Winds:from the SSW (200 degrees) at 12 MPH (10 knots; 5.1 m/s)
Visibility:10 or more sm (16+ km)
Ceiling:at least 12,000 feet AGL
Clouds:sky clear below 12,000 feet AGL
QC Flag:automated observation with no human augmentation
Text:KW22 230355Z AUTO 18012G17KT 10SM CLR 14/07 A2974 RMK AO2
Temperature: 14.0°C ( 57°F)
Dewpoint: 7.0°C ( 45°F) [RH = 63%]
Pressure (altimeter):29.74 inches Hg (1007.2 mb)
Winds:from the S (180 degrees) at 14 MPH (12 knots; 6.2 m/s) gusting to 20 MPH (17 knots; 8.7 m/s)
Visibility:10 or more sm (16+ km)
Ceiling:at least 12,000 feet AGL
Clouds:sky clear below 12,000 feet AGL
QC Flag:automated observation with no human augmentation
Text:KW22 230335Z AUTO 18008G13KT 10SM FEW065 13/06 A2975 RMK AO2
Temperature: 13.0°C ( 55°F)
Dewpoint: 6.0°C ( 43°F) [RH = 62%]
Pressure (altimeter):29.75 inches Hg (1007.5 mb)
Winds:from the S (180 degrees) at 9 MPH (8 knots; 4.1 m/s) gusting to 15 MPH (13 knots; 6.7 m/s)
Visibility:10 or more sm (16+ km)
Ceiling:at least 12,000 feet AGL
Clouds: few clouds at 6500 feet AGL
QC Flag:automated observation with no human augmentation
Text:KW22 230315Z AUTO 17008KT 10SM FEW070 SCT075 BKN090 13/06 A2976 RMK AO2
Temperature: 13.0°C ( 55°F)
Dewpoint: 6.0°C ( 43°F) [RH = 62%]
Pressure (altimeter):29.76 inches Hg (1007.9 mb)
Winds:from the S (170 degrees) at 9 MPH (8 knots; 4.1 m/s)
Visibility:10 or more sm (16+ km)
Ceiling:9000 feet AGL
Clouds: few clouds at 7000 feet AGL, scattered clouds at 7500 feet AGL, broken clouds at 9000 feet AGL
QC Flag:automated observation with no human augmentation
Text:KW22 230255Z AUTO 13006KT 10SM FEW060 BKN075 OVC090 12/07 A2977 RMK AO2
Temperature: 12.0°C ( 54°F)
Dewpoint: 7.0°C ( 45°F) [RH = 71%]
Pressure (altimeter):29.77 inches Hg (1008.2 mb)
Winds:from the SE (130 degrees) at 7 MPH (6 knots; 3.1 m/s)
Visibility:10 or more sm (16+ km)
Ceiling:7500 feet AGL
Clouds: few clouds at 6000 feet AGL, broken clouds at 7500 feet AGL, overcast cloud deck at 9000 feet AGL
QC Flag:automated observation with no human augmentation
Text:KW22 230235Z AUTO 13006KT 10SM OVC070 12/06 A2978 RMK AO2
Temperature: 12.0°C ( 54°F)
Dewpoint: 6.0°C ( 43°F) [RH = 67%]
Pressure (altimeter):29.78 inches Hg (1008.5 mb)
Winds:from the SE (130 degrees) at 7 MPH (6 knots; 3.1 m/s)
Visibility:10 or more sm (16+ km)
Ceiling:7000 feet AGL
Clouds: overcast cloud deck at 7000 feet AGL
QC Flag:automated observation with no human augmentation
Text:KW22 230215Z AUTO 14006KT 10SM OVC070 12/06 A2980 RMK AO2
Temperature: 12.0°C ( 54°F)
Dewpoint: 6.0°C ( 43°F) [RH = 67%]
Pressure (altimeter):29.80 inches Hg (1009.2 mb)
Winds:from the SE (140 degrees) at 7 MPH (6 knots; 3.1 m/s)
Visibility:10 or more sm (16+ km)
Ceiling:7000 feet AGL
Clouds: overcast cloud deck at 7000 feet AGL
QC Flag:automated observation with no human augmentation
Text:KW22 230155Z AUTO 17010G15KT 9SM FEW048 OVC065 13/05 A2983 RMK AO2
Temperature: 13.0°C ( 55°F)
Dewpoint: 5.0°C ( 41°F) [RH = 58%]
Pressure (altimeter):29.83 inches Hg (1010.2 mb)
Winds:from the S (170 degrees) at 12 MPH (10 knots; 5.1 m/s) gusting to 17 MPH (15 knots; 7.7 m/s)
Visibility: 9 sm ( 14 km)
Ceiling:6500 feet AGL
Clouds: few clouds at 4800 feet AGL, overcast cloud deck at 6500 feet AGL
QC Flag:automated observation with no human augmentation
Text:KW22 230135Z AUTO 18011KT 10SM FEW055 BKN060 OVC075 15/04 A2983 RMK AO2
Temperature: 15.0°C ( 59°F)
Dewpoint: 4.0°C ( 39°F) [RH = 48%]
Pressure (altimeter):29.83 inches Hg (1010.2 mb)
Winds:from the S (180 degrees) at 13 MPH (11 knots; 5.7 m/s)
Visibility:10 or more sm (16+ km)
Ceiling:6000 feet AGL
Clouds: few clouds at 5500 feet AGL, broken clouds at 6000 feet AGL, overcast cloud deck at 7500 feet AGL
QC Flag:automated observation with no human augmentation
Text:KW22 230115Z AUTO 17008KT 10SM FEW037 SCT060 BKN075 15/04 A2983 RMK AO2
Temperature: 15.0°C ( 59°F)
Dewpoint: 4.0°C ( 39°F) [RH = 48%]
Pressure (altimeter):29.83 inches Hg (1010.2 mb)
Winds:from the S (170 degrees) at 9 MPH (8 knots; 4.1 m/s)
Visibility:10 or more sm (16+ km)
Ceiling:7500 feet AGL
Clouds: few clouds at 3700 feet AGL, scattered clouds at 6000 feet AGL, broken clouds at 7500 feet AGL
QC Flag:automated observation with no human augmentation
Text:KW22 230055Z AUTO 18006KT 10SM FEW040 SCT060 OVC075 15/03 A2984 RMK AO2
Temperature: 15.0°C ( 59°F)
Dewpoint: 3.0°C ( 37°F) [RH = 44%]
Pressure (altimeter):29.84 inches Hg (1010.6 mb)
Winds:from the S (180 degrees) at 7 MPH (6 knots; 3.1 m/s)
Visibility:10 or more sm (16+ km)
Ceiling:7500 feet AGL
Clouds: few clouds at 4000 feet AGL, scattered clouds at 6000 feet AGL, overcast cloud deck at 7500 feet AGL
QC Flag:automated observation with no human augmentation
Text:KW22 230035Z AUTO 19004KT 10SM 15/03 A2985 RMK AO2
Temperature: 15.0°C ( 59°F)
Dewpoint: 3.0°C ( 37°F) [RH = 44%]
Pressure (altimeter):29.85 inches Hg (1010.9 mb)
Winds:from the S (190 degrees) at 5 MPH (4 knots; 2.1 m/s)
Visibility:10 or more sm (16+ km)
QC Flag:automated observation with no human augmentation
Text:KW22 230015Z AUTO 19007KT 10SM 15/03 A2986 RMK AO2
Temperature: 15.0°C ( 59°F)
Dewpoint: 3.0°C ( 37°F) [RH = 44%]
Pressure (altimeter):29.86 inches Hg (1011.3 mb)
Winds:from the S (190 degrees) at 8 MPH (7 knots; 3.6 m/s)
Visibility:10 or more sm (16+ km)
QC Flag:automated observation with no human augmentation
Text:KW22 222355Z AUTO 19008KT 10SM 16/03 A2986 RMK AO2
Temperature: 16.0°C ( 61°F)
Dewpoint: 3.0°C ( 37°F) [RH = 42%]
Pressure (altimeter):29.86 inches Hg (1011.3 mb)
Winds:from the S (190 degrees) at 9 MPH (8 knots; 4.1 m/s)
Visibility:10 or more sm (16+ km)
QC Flag:automated observation with no human augmentation
Text:KW22 222335Z AUTO 18008KT 10SM 16/03 A2986 RMK AO2
Temperature: 16.0°C ( 61°F)
Dewpoint: 3.0°C ( 37°F) [RH = 42%]
Pressure (altimeter):29.86 inches Hg (1011.3 mb)
Winds:from the S (180 degrees) at 9 MPH (8 knots; 4.1 m/s)
Visibility:10 or more sm (16+ km)
QC Flag:automated observation with no human augmentation
Text:KW22 222315Z AUTO 19007KT 10SM 16/03 A2987 RMK AO2
Temperature: 16.0°C ( 61°F)
Dewpoint: 3.0°C ( 37°F) [RH = 42%]
Pressure (altimeter):29.87 inches Hg (1011.6 mb)
Winds:from the S (190 degrees) at 8 MPH (7 knots; 3.6 m/s)
Visibility:10 or more sm (16+ km)
QC Flag:automated observation with no human augmentation
Text:KW22 222255Z AUTO 19006KT 10SM 16/03 A2987 RMK AO2
Temperature: 16.0°C ( 61°F)
Dewpoint: 3.0°C ( 37°F) [RH = 42%]
Pressure (altimeter):29.87 inches Hg (1011.6 mb)
Winds:from the S (190 degrees) at 7 MPH (6 knots; 3.1 m/s)
Visibility:10 or more sm (16+ km)
QC Flag:automated observation with no human augmentation
Text:KW22 222235Z AUTO 20007KT 10SM SCT065 16/03 A2988 RMK AO2
Temperature: 16.0°C ( 61°F)
Dewpoint: 3.0°C ( 37°F) [RH = 42%]
Pressure (altimeter):29.88 inches Hg (1011.9 mb)
Winds:from the SSW (200 degrees) at 8 MPH (7 knots; 3.6 m/s)
Visibility:10 or more sm (16+ km)
Ceiling:at least 12,000 feet AGL
Clouds: scattered clouds at 6500 feet AGL
QC Flag:automated observation with no human augmentation
Text:KW22 222215Z AUTO 20009KT 10SM CLR 17/03 A2987 RMK AO2
Temperature: 17.0°C ( 63°F)
Dewpoint: 3.0°C ( 37°F) [RH = 39%]
Pressure (altimeter):29.87 inches Hg (1011.6 mb)
Winds:from the SSW (200 degrees) at 10 MPH (9 knots; 4.6 m/s)
Visibility:10 or more sm (16+ km)
Ceiling:at least 12,000 feet AGL
Clouds:sky clear below 12,000 feet AGL
QC Flag:automated observation with no human augmentation
Text:KW22 222155Z AUTO 20008KT 10SM CLR 17/03 A2988 RMK AO2
Temperature: 17.0°C ( 63°F)
Dewpoint: 3.0°C ( 37°F) [RH = 39%]
Pressure (altimeter):29.88 inches Hg (1011.9 mb)
Winds:from the SSW (200 degrees) at 9 MPH (8 knots; 4.1 m/s)
Visibility:10 or more sm (16+ km)
Ceiling:at least 12,000 feet AGL
Clouds:sky clear below 12,000 feet AGL
QC Flag:automated observation with no human augmentation
Text:KW22 222135Z AUTO 20009KT 10SM CLR 18/03 A2988 RMK AO2
Temperature: 18.0°C ( 64°F)
Dewpoint: 3.0°C ( 37°F) [RH = 37%]
Pressure (altimeter):29.88 inches Hg (1011.9 mb)
Winds:from the SSW (200 degrees) at 10 MPH (9 knots; 4.6 m/s)
Visibility:10 or more sm (16+ km)
Ceiling:at least 12,000 feet AGL
Clouds:sky clear below 12,000 feet AGL
QC Flag:automated observation with no human augmentation
Text:KW22 222115Z AUTO 19009KT 10SM CLR 18/03 A2987 RMK AO2
Temperature: 18.0°C ( 64°F)
Dewpoint: 3.0°C ( 37°F) [RH = 37%]
Pressure (altimeter):29.87 inches Hg (1011.6 mb)
Winds:from the S (190 degrees) at 10 MPH (9 knots; 4.6 m/s)
Visibility:10 or more sm (16+ km)
Ceiling:at least 12,000 feet AGL
Clouds:sky clear below 12,000 feet AGL
QC Flag:automated observation with no human augmentation
Text:KW22 222055Z AUTO 20008G18KT 10SM CLR 18/03 A2988 RMK AO2
Temperature: 18.0°C ( 64°F)
Dewpoint: 3.0°C ( 37°F) [RH = 37%]
Pressure (altimeter):29.88 inches Hg (1011.9 mb)
Winds:from the SSW (200 degrees) at 9 MPH (8 knots; 4.1 m/s) gusting to 21 MPH (18 knots; 9.3 m/s)
Visibility:10 or more sm (16+ km)
Ceiling:at least 12,000 feet AGL
Clouds:sky clear below 12,000 feet AGL
QC Flag:automated observation with no human augmentation
Text:KW22 222035Z AUTO 19014KT 10SM CLR 18/03 A2988 RMK AO2
Temperature: 18.0°C ( 64°F)
Dewpoint: 3.0°C ( 37°F) [RH = 37%]
Pressure (altimeter):29.88 inches Hg (1011.9 mb)
Winds:from the S (190 degrees) at 16 MPH (14 knots; 7.2 m/s)
Visibility:10 or more sm (16+ km)
Ceiling:at least 12,000 feet AGL
Clouds:sky clear below 12,000 feet AGL
QC Flag:automated observation with no human augmentation
Text:KW22 222015Z AUTO 19012KT 10SM CLR 18/03 A2988 RMK AO2
Temperature: 18.0°C ( 64°F)
Dewpoint: 3.0°C ( 37°F) [RH = 37%]
Pressure (altimeter):29.88 inches Hg (1011.9 mb)
Winds:from the S (190 degrees) at 14 MPH (12 knots; 6.2 m/s)
Visibility:10 or more sm (16+ km)
Ceiling:at least 12,000 feet AGL
Clouds:sky clear below 12,000 feet AGL
QC Flag:automated observation with no human augmentation
Text:KW22 221915Z AUTO 19016KT 10SM CLR 19/04 A2989 RMK AO2
Temperature: 19.0°C ( 66°F)
Dewpoint: 4.0°C ( 39°F) [RH = 37%]
Pressure (altimeter):29.89 inches Hg (1012.3 mb)
Winds:from the S (190 degrees) at 18 MPH (16 knots; 8.2 m/s)
Visibility:10 or more sm (16+ km)
Ceiling:at least 12,000 feet AGL
Clouds:sky clear below 12,000 feet AGL
QC Flag:automated observation with no human augmentation
Text:KW22 221855Z AUTO 19016G24KT 10SM CLR 19/04 A2990 RMK AO2
Temperature: 19.0°C ( 66°F)
Dewpoint: 4.0°C ( 39°F) [RH = 37%]
Pressure (altimeter):29.90 inches Hg (1012.6 mb)
Winds:from the S (190 degrees) at 18 MPH (16 knots; 8.2 m/s) gusting to 28 MPH (24 knots; 12.3 m/s)
Visibility:10 or more sm (16+ km)
Ceiling:at least 12,000 feet AGL
Clouds:sky clear below 12,000 feet AGL
QC Flag:automated observation with no human augmentation
Text:KW22 221835Z AUTO 19016G25KT 10SM CLR 19/04 A2992 RMK AO2
Temperature: 19.0°C ( 66°F)
Dewpoint: 4.0°C ( 39°F) [RH = 37%]
Pressure (altimeter):29.92 inches Hg (1013.3 mb)
Winds:from the S (190 degrees) at 18 MPH (16 knots; 8.2 m/s) gusting to 29 MPH (25 knots; 12.9 m/s)
Visibility:10 or more sm (16+ km)
Ceiling:at least 12,000 feet AGL
Clouds:sky clear below 12,000 feet AGL
QC Flag:automated observation with no human augmentation
Text:KW22 221815Z AUTO 20014G23KT 10SM CLR 19/05 A2992 RMK AO2
Temperature: 19.0°C ( 66°F)
Dewpoint: 5.0°C ( 41°F) [RH = 40%]
Pressure (altimeter):29.92 inches Hg (1013.3 mb)
Winds:from the SSW (200 degrees) at 16 MPH (14 knots; 7.2 m/s) gusting to 26 MPH (23 knots; 11.8 m/s)
Visibility:10 or more sm (16+ km)
Ceiling:at least 12,000 feet AGL
Clouds:sky clear below 12,000 feet AGL
QC Flag:automated observation with no human augmentation
Text:KW22 221755Z AUTO 20013G20KT 10SM CLR 19/05 A2993 RMK AO2
Temperature: 19.0°C ( 66°F)
Dewpoint: 5.0°C ( 41°F) [RH = 40%]
Pressure (altimeter):29.93 inches Hg (1013.6 mb)
Winds:from the SSW (200 degrees) at 15 MPH (13 knots; 6.7 m/s) gusting to 23 MPH (20 knots; 10.3 m/s)
Visibility:10 or more sm (16+ km)
Ceiling:at least 12,000 feet AGL
Clouds:sky clear below 12,000 feet AGL
QC Flag:automated observation with no human augmentation
Text:KW22 221735Z AUTO 20008KT 10SM CLR 18/06 A2995 RMK AO2
Temperature: 18.0°C ( 64°F)
Dewpoint: 6.0°C ( 43°F) [RH = 45%]
Pressure (altimeter):29.95 inches Hg (1014.3 mb)
Winds:from the SSW (200 degrees) at 9 MPH (8 knots; 4.1 m/s)
Visibility:10 or more sm (16+ km)
Ceiling:at least 12,000 feet AGL
Clouds:sky clear below 12,000 feet AGL
QC Flag:automated observation with no human augmentation
Text:KW22 221715Z AUTO 19010G16KT 10SM CLR 17/05 A2997 RMK AO2
Temperature: 17.0°C ( 63°F)
Dewpoint: 5.0°C ( 41°F) [RH = 45%]
Pressure (altimeter):29.97 inches Hg (1015.0 mb)
Winds:from the S (190 degrees) at 12 MPH (10 knots; 5.1 m/s) gusting to 18 MPH (16 knots; 8.2 m/s)
Visibility:10 or more sm (16+ km)
Ceiling:at least 12,000 feet AGL
Clouds:sky clear below 12,000 feet AGL
QC Flag:automated observation with no human augmentation
Text:KW22 221655Z AUTO 18012G19KT 10SM CLR 17/05 A2998 RMK AO2
Temperature: 17.0°C ( 63°F)
Dewpoint: 5.0°C ( 41°F) [RH = 45%]
Pressure (altimeter):29.98 inches Hg (1015.3 mb)
Winds:from the S (180 degrees) at 14 MPH (12 knots; 6.2 m/s) gusting to 22 MPH (19 knots; 9.8 m/s)
Visibility:10 or more sm (16+ km)
Ceiling:at least 12,000 feet AGL
Clouds:sky clear below 12,000 feet AGL
QC Flag:automated observation with no human augmentation
Text:KW22 221635Z AUTO 18015KT 10SM FEW085 17/06 A3000 RMK AO2
Temperature: 17.0°C ( 63°F)
Dewpoint: 6.0°C ( 43°F) [RH = 48%]
Pressure (altimeter):30.00 inches Hg (1016.0 mb)
Winds:from the S (180 degrees) at 17 MPH (15 knots; 7.7 m/s)
Visibility:10 or more sm (16+ km)
Ceiling:at least 12,000 feet AGL
Clouds: few clouds at 8500 feet AGL
QC Flag:automated observation with no human augmentation
Text:KW22 221615Z AUTO 20006KT 10SM BKN085 16/07 A3002 RMK AO2
Temperature: 16.0°C ( 61°F)
Dewpoint: 7.0°C ( 45°F) [RH = 55%]
Pressure (altimeter):30.02 inches Hg (1016.7 mb)
Winds:from the SSW (200 degrees) at 7 MPH (6 knots; 3.1 m/s)
Visibility:10 or more sm (16+ km)
Ceiling:8500 feet AGL
Clouds: broken clouds at 8500 feet AGL
QC Flag:automated observation with no human augmentation
Text:KW22 221555Z AUTO 00000KT 10SM OVC085 15/08 A3003 RMK AO2
Temperature: 15.0°C ( 59°F)
Dewpoint: 8.0°C ( 46°F) [RH = 63%]
Pressure (altimeter):30.03 inches Hg (1017.0 mb)
Winds:calm
Visibility:10 or more sm (16+ km)
Ceiling:8500 feet AGL
Clouds: overcast cloud deck at 8500 feet AGL
QC Flag:automated observation with no human augmentation
Text:KW22 221535Z AUTO 00000KT 10SM OVC085 15/08 A3004 RMK AO2
Temperature: 15.0°C ( 59°F)
Dewpoint: 8.0°C ( 46°F) [RH = 63%]
Pressure (altimeter):30.04 inches Hg (1017.4 mb)
Winds:calm
Visibility:10 or more sm (16+ km)
Ceiling:8500 feet AGL
Clouds: overcast cloud deck at 8500 feet AGL
QC Flag:automated observation with no human augmentation
Text:KW22 221515Z AUTO 00000KT 10SM OVC085 15/07 A3004 RMK AO2
Temperature: 15.0°C ( 59°F)
Dewpoint: 7.0°C ( 45°F) [RH = 59%]
Pressure (altimeter):30.04 inches Hg (1017.4 mb)
Winds:calm
Visibility:10 or more sm (16+ km)
Ceiling:8500 feet AGL
Clouds: overcast cloud deck at 8500 feet AGL
QC Flag:automated observation with no human augmentation
Text:KW22 221455Z AUTO 00000KT 10SM BKN085 15/07 A3004 RMK AO2
Temperature: 15.0°C ( 59°F)
Dewpoint: 7.0°C ( 45°F) [RH = 59%]
Pressure (altimeter):30.04 inches Hg (1017.4 mb)
Winds:calm
Visibility:10 or more sm (16+ km)
Ceiling:8500 feet AGL
Clouds: broken clouds at 8500 feet AGL
QC Flag:automated observation with no human augmentation
Text:KW22 221435Z AUTO 00000KT 10SM FEW060 SCT070 OVC090 13/08 A3004 RMK AO2
Temperature: 13.0°C ( 55°F)
Dewpoint: 8.0°C ( 46°F) [RH = 72%]
Pressure (altimeter):30.04 inches Hg (1017.4 mb)
Winds:calm
Visibility:10 or more sm (16+ km)
Ceiling:9000 feet AGL
Clouds: few clouds at 6000 feet AGL, scattered clouds at 7000 feet AGL, overcast cloud deck at 9000 feet AGL
QC Flag:automated observation with no human augmentation
Text:KW22 221415Z AUTO 18003KT 10SM BKN060 BKN075 OVC095 13/07 A3004 RMK AO2
Temperature: 13.0°C ( 55°F)
Dewpoint: 7.0°C ( 45°F) [RH = 67%]
Pressure (altimeter):30.04 inches Hg (1017.4 mb)
Winds:from the S (180 degrees) at 3 MPH (3 knots; 1.5 m/s)
Visibility:10 or more sm (16+ km)
Ceiling:6000 feet AGL
Clouds: broken clouds at 6000 feet AGL, broken clouds at 7500 feet AGL, overcast cloud deck at 9500 feet AGL
QC Flag:automated observation with no human augmentation